Time;durP1;ratioP1;P1;durP2;ratioP2;P2;SDS_P1;SDS_P2;PMS_P1;PMS_P2;Temp;Humidity;BMP_temperature;BMP_pressure;BME280_temperature;BME280_humidity;BME280_pressure;Samples;Min_cycle;Max_cycle;Signal;HPM_P1;HPM_P2
2023/02/18 00:00:18;;;;;;;28.73;7.30;;;10.30;99.90;;;;;;5074403;28;20228;-81
2023/02/18 00:02:46;;;;;;;16.87;6.57;;;10.30;99.90;;;;;;5061324;28;20208;-82
2023/02/18 00:05:13;;;;;;;31.60;9.27;;;10.30;99.90;;;;;;5055327;28;20280;-81
2023/02/18 00:07:41;;;;;;;22.87;8.50;;;10.30;99.90;;;;;;5054625;28;20218;-80
2023/02/18 00:10:12;;;;;;;24.70;8.00;;;10.30;99.90;;;;;;5054965;28;20236;-78
2023/02/18 00:12:39;;;;;;;22.60;7.97;;;10.30;99.90;;;;;;5054172;28;20202;-78
2023/02/18 00:15:08;;;;;;;33.50;11.63;;;10.20;99.90;;;;;;5054845;28;20212;-80
2023/02/18 00:17:35;;;;;;;43.00;13.17;;;10.20;99.90;;;;;;5054976;28;20212;-79
2023/02/18 00:20:02;;;;;;;35.60;10.53;;;10.10;99.90;;;;;;5054035;28;20670;-77
2023/02/18 00:22:29;;;;;;;25.37;8.67;;;10.20;99.90;;;;;;5054113;28;20210;-78
2023/02/18 00:24:56;;;;;;;27.43;8.83;;;10.10;99.90;;;;;;5098156;28;20660;-80
2023/02/18 00:27:24;;;;;;;33.40;9.37;;;10.00;99.90;;;;;;5114184;28;20483;-78
2023/02/18 00:29:51;;;;;;;27.57;7.57;;;10.00;99.90;;;;;;5114406;28;20279;-78
2023/02/18 00:32:18;;;;;;;21.73;7.73;;;10.00;99.90;;;;;;5094534;28;20213;-79
2023/02/18 00:34:45;;;;;;;29.30;10.20;;;10.00;99.90;;;;;;5093996;28;20192;-78
2023/02/18 00:37:11;;;;;;;31.37;8.97;;;10.00;99.90;;;;;;5094662;28;20232;-82
2023/02/18 00:39:38;;;;;;;44.67;12.07;;;10.00;99.90;;;;;;5094659;28;20295;-80
2023/02/18 00:42:05;;;;;;;39.30;12.30;;;10.00;99.90;;;;;;5093802;28;20197;-80
2023/02/18 00:44:34;;;;;;;36.07;11.13;;;10.00;99.90;;;;;;5094387;28;20301;-81
2023/02/18 00:47:01;;;;;;;26.73;8.73;;;10.00;99.90;;;;;;5093983;28;20205;-79
2023/02/18 00:49:27;;;;;;;24.60;9.20;;;10.00;99.90;;;;;;5093327;28;20649;-79
2023/02/18 00:51:54;;;;;;;19.63;8.23;;;9.90;99.90;;;;;;5106701;28;20232;-79
2023/02/18 00:54:21;;;;;;;31.33;10.20;;;9.90;99.90;;;;;;5114417;28;20278;-78
2023/02/18 00:56:48;;;;;;;23.13;9.83;;;9.90;99.90;;;;;;5113523;28;20207;-78
2023/02/18 00:59:15;;;;;;;39.13;11.27;;;9.90;99.90;;;;;;5114115;28;20200;-81
2023/02/18 01:01:43;;;;;;;32.07;13.03;;;9.90;99.90;;;;;;5115253;28;20202;-80
2023/02/18 01:04:11;;;;;;;24.57;10.47;;;9.90;99.90;;;;;;5114041;28;20303;-79
2023/02/18 01:06:38;;;;;;;34.03;10.77;;;9.90;99.90;;;;;;5113029;28;20200;-81
2023/02/18 01:09:05;;;;;;;30.70;9.70;;;9.90;99.90;;;;;;5094085;28;20923;-83
2023/02/18 01:11:34;;;;;;;34.17;10.57;;;9.90;99.90;;;;;;5094640;28;20228;-82
2023/02/18 01:14:01;;;;;;;32.90;9.67;;;9.90;99.90;;;;;;5095181;28;20228;-77
2023/02/18 01:16:28;;;;;;;38.63;10.90;;;9.90;99.90;;;;;;5094726;28;20279;-81
2023/02/18 01:18:56;;;;;;;36.60;11.53;;;9.80;99.90;;;;;;5094724;28;20648;-81
2023/02/18 01:21:23;;;;;;;47.17;12.80;;;9.80;99.90;;;;;;5094373;28;20193;-83
2023/02/18 01:23:50;;;;;;;35.17;11.63;;;9.80;99.90;;;;;;5093156;28;20350;-79
2023/02/18 01:26:17;;;;;;;37.67;13.47;;;9.80;99.90;;;;;;5094803;28;20193;-84
2023/02/18 01:28:44;;;;;;;40.43;13.67;;;9.80;99.90;;;;;;5094213;28;20296;-83
2023/02/18 01:31:13;;;;;;;37.60;14.70;;;9.80;99.90;;;;;;5094522;28;20213;-84
2023/02/18 01:33:41;;;;;;;34.60;13.07;;;9.80;99.90;;;;;;5093742;28;20236;-82
2023/02/18 01:36:11;;;;;;;44.07;14.73;;;9.70;99.90;;;;;;5094152;28;20571;-78
2023/02/18 01:38:37;;;;;;;51.70;15.23;;;9.80;99.90;;;;;;5093382;28;20299;-82
2023/02/18 01:41:05;;;;;;;42.30;14.40;;;9.80;99.90;;;;;;5094381;28;20219;-83
2023/02/18 01:43:32;;;;;;;41.63;14.93;;;9.80;99.90;;;;;;5094180;28;20255;-78
2023/02/18 01:46:12;;;;;;;55.53;17.00;;;9.80;99.90;;;;;;5092790;28;20717;-79
2023/02/18 01:48:42;;;;;;;48.93;16.77;;;9.80;99.90;;;;;;5092881;28;20292;-79
2023/02/18 01:51:13;;;;;;;55.47;20.27;;;9.80;99.90;;;;;;5092500;28;20710;-82
2023/02/18 01:53:46;;;;;;;54.60;21.00;;;9.90;99.90;;;;;;5093470;28;20200;-82
2023/02/18 01:56:20;;;;;;;56.90;20.27;;;9.90;99.90;;;;;;5093807;28;20573;-81
2023/02/18 01:58:48;;;;;;;58.10;21.33;;;9.90;99.90;;;;;;5093354;28;20596;-83
2023/02/18 02:01:15;;;;;;;46.67;20.23;;;9.90;99.90;;;;;;5094005;28;20227;-83
2023/02/18 02:03:42;;;;;;;55.90;21.03;;;9.90;99.90;;;;;;5093571;28;20276;-82
2023/02/18 02:06:16;;;;;;;51.43;19.57;;;9.80;99.90;;;;;;5092826;28;20207;-81
2023/02/18 02:08:43;;;;;;;51.90;19.97;;;9.80;99.90;;;;;;5093910;28;20288;-81
2023/02/18 02:11:33;;;;;;;53.13;22.27;;;9.80;99.90;;;;;;5111905;28;20227;-82
2023/02/18 02:14:16;;;;;;;56.23;23.43;;;9.80;99.90;;;;;;5106648;28;20211;-83
2023/02/18 02:16:50;;;;;;;64.03;25.57;;;9.80;99.90;;;;;;5093409;28;20200;-80
2023/02/18 02:19:54;;;;;;;51.63;25.70;;;9.80;99.90;;;;;;5100184;28;20672;-81
2023/02/18 02:22:48;;;;;;;71.70;28.63;;;9.80;99.90;;;;;;5113779;28;20280;-85
2023/02/18 02:25:25;;;;;;;58.23;26.33;;;9.80;99.90;;;;;;5102341;28;20335;-82
2023/02/18 02:28:16;;;;;;;71.07;27.53;;;9.80;99.90;;;;;;5093293;28;20504;-80
2023/02/18 02:30:58;;;;;;;57.77;26.93;;;9.80;99.90;;;;;;5059671;28;20228;-83
2023/02/18 02:33:51;;;;;;;64.87;28.80;;;9.80;99.90;;;;;;5093287;28;20280;-81
2023/02/18 02:36:24;;;;;;;61.13;28.10;;;9.80;99.90;;;;;;5093701;28;20271;-78
2023/02/18 02:38:59;;;;;;;50.90;26.63;;;9.80;99.90;;;;;;5093345;28;20300;-80
2023/02/18 02:41:37;;;;;;;63.00;27.67;;;9.80;99.90;;;;;;5092844;28;20192;-82
2023/02/18 02:44:18;;;;;;;63.97;28.00;;;9.80;99.90;;;;;;5097793;28;20215;-82
2023/02/18 02:46:47;;;;;;;63.87;28.93;;;9.90;99.90;;;;;;5113960;28;20211;-83
2023/02/18 02:49:24;;;;;;;63.80;28.23;;;9.90;99.90;;;;;;5105798;28;20287;-82
2023/02/18 02:51:59;;;;;;;56.23;25.50;;;9.90;99.90;;;;;;5092876;28;20215;-82
2023/02/18 02:54:28;;;;;;;68.43;27.33;;;9.90;99.90;;;;;;5092024;28;20287;-83
2023/02/18 02:57:06;;;;;;;64.93;28.93;;;9.90;99.90;;;;;;5092446;28;20196;-83
2023/02/18 02:59:36;;;;;;;57.77;24.47;;;9.90;99.90;;;;;;5092733;28;20216;-83
2023/02/18 03:02:18;;;;;;;54.77;25.10;;;10.00;99.90;;;;;;5092367;28;20206;-82
2023/02/18 03:05:07;;;;;;;50.97;23.63;;;10.00;99.90;;;;;;5092933;28;20185;-81
2023/02/18 03:08:04;;;;;;;50.70;23.80;;;10.00;99.90;;;;;;5093130;28;20271;-81
2023/02/18 03:10:42;;;;;;;49.33;24.53;;;10.00;99.90;;;;;;5092904;28;20299;-77
2023/02/18 03:13:17;;;;;;;46.30;22.67;;;10.00;99.90;;;;;;5092573;28;20518;-79
2023/02/18 03:15:52;;;;;;;52.47;23.23;;;10.10;99.90;;;;;;5092052;28;20270;-82
2023/02/18 03:18:23;;;;;;;61.00;23.57;;;10.00;99.90;;;;;;5093216;28;20223;-82
2023/02/18 03:20:57;;;;;;;54.17;23.67;;;10.00;99.90;;;;;;5092279;28;20553;-83
2023/02/18 03:23:30;;;;;;;54.37;23.37;;;10.00;99.90;;;;;;5092266;28;20211;-83
2023/02/18 03:25:58;;;;;;;47.67;22.90;;;10.00;99.90;;;;;;5092746;28;20292;-83
2023/02/18 03:28:30;;;;;;;52.10;24.23;;;10.00;99.90;;;;;;5093205;28;20300;-81
2023/02/18 03:31:02;;;;;;;44.83;21.43;;;9.90;99.90;;;;;;5092408;28;20193;-82
2023/02/18 03:33:33;;;;;;;46.67;23.67;;;10.00;99.90;;;;;;5092760;28;20195;-80
2023/02/18 03:36:01;;;;;;;48.37;22.57;;;9.90;99.90;;;;;;5093139;28;20699;-82
2023/02/18 03:38:36;;;;;;;49.27;23.70;;;9.90;99.90;;;;;;5092423;28;20259;-82
2023/02/18 03:41:03;;;;;;;50.50;23.07;;;10.00;99.90;;;;;;5092763;28;20556;-82
2023/02/18 03:43:30;;;;;;;51.77;25.40;;;10.00;99.90;;;;;;5104638;28;20283;-81
2023/02/18 03:45:58;;;;;;;55.50;25.40;;;10.00;99.90;;;;;;5112945;28;20271;-83
2023/02/18 03:48:24;;;;;;;46.73;23.40;;;10.00;99.90;;;;;;5112266;28;20543;-83
2023/02/18 03:50:51;;;;;;;43.77;23.43;;;10.00;99.90;;;;;;5112298;28;20322;-83
2023/02/18 03:53:18;;;;;;;37.50;20.33;;;10.00;99.90;;;;;;5109505;28;20248;-81
2023/02/18 03:55:47;;;;;;;39.00;19.77;;;10.00;99.90;;;;;;5092662;28;20204;-79
2023/02/18 03:58:13;;;;;;;35.23;19.77;;;10.00;99.90;;;;;;5096368;28;20661;-80
2023/02/18 04:00:40;;;;;;;33.03;19.97;;;10.00;99.90;;;;;;5096117;28;20287;-82
2023/02/18 04:03:07;;;;;;;30.53;19.00;;;10.00;99.90;;;;;;5096114;28;20228;-83
2023/02/18 04:05:34;;;;;;;27.43;18.07;;;9.90;99.90;;;;;;5095771;28;20498;-82
2023/02/18 04:08:01;;;;;;;34.23;19.03;;;9.90;99.90;;;;;;5106001;28;20196;-81
2023/02/18 04:10:29;;;;;;;28.20;16.77;;;9.90;99.90;;;;;;5116443;28;20231;-82
2023/02/18 04:12:57;;;;;;;31.93;17.50;;;10.00;99.90;;;;;;5115993;28;20222;-82
2023/02/18 04:15:24;;;;;;;32.30;17.17;;;9.90;99.90;;;;;;5115838;28;20287;-83
2023/02/18 04:17:51;;;;;;;31.27;16.00;;;10.00;99.90;;;;;;5095991;28;20300;-81
2023/02/18 04:20:18;;;;;;;38.37;18.87;;;9.90;99.90;;;;;;5095139;28;20207;-83
2023/02/18 04:22:45;;;;;;;46.17;20.33;;;9.90;99.90;;;;;;5104588;28;20249;-81
2023/02/18 04:25:12;;;;;;;47.77;20.20;;;10.00;99.90;;;;;;5115541;28;20742;-82
2023/02/18 04:27:38;;;;;;;57.13;20.37;;;9.90;99.90;;;;;;5115342;28;20196;-84
2023/02/18 04:30:08;;;;;;;43.33;17.13;;;10.00;99.90;;;;;;5115395;28;20198;-78
2023/02/18 04:32:35;;;;;;;39.33;17.27;;;10.00;99.90;;;;;;5114400;28;20223;-80
2023/02/18 04:35:02;;;;;;;40.47;16.00;;;10.00;99.90;;;;;;5115351;28;20280;-82
2023/02/18 04:37:29;;;;;;;43.13;15.47;;;10.00;99.90;;;;;;5114777;28;20553;-80
2023/02/18 04:39:56;;;;;;;32.47;14.70;;;10.00;99.90;;;;;;5115779;28;20196;-82
2023/02/18 04:42:23;;;;;;;36.90;15.70;;;10.00;99.90;;;;;;5115250;28;20608;-83
2023/02/18 04:44:50;;;;;;;36.13;15.07;;;10.00;99.90;;;;;;5115174;28;20237;-83
2023/02/18 04:47:18;;;;;;;40.27;13.23;;;10.00;99.90;;;;;;5115397;28;20510;-82
2023/02/18 04:49:45;;;;;;;40.50;15.13;;;10.00;99.90;;;;;;5115843;28;20602;-82
2023/02/18 04:52:12;;;;;;;36.03;13.70;;;10.00;99.90;;;;;;5102218;28;20230;-85
2023/02/18 04:54:39;;;;;;;39.17;13.60;;;10.00;99.90;;;;;;5109153;28;20206;-83
2023/02/18 04:57:06;;;;;;;44.87;14.13;;;10.00;99.90;;;;;;5115126;28;20196;-81
2023/02/18 04:59:33;;;;;;;35.40;13.43;;;10.00;99.90;;;;;;5115708;28;20307;-81
2023/02/18 05:02:00;;;;;;;39.57;13.40;;;10.00;99.90;;;;;;5102595;28;20292;-84
2023/02/18 05:04:28;;;;;;;32.07;13.43;;;10.00;99.90;;;;;;5094517;28;20284;-81
2023/02/18 05:06:55;;;;;;;35.67;13.80;;;10.00;99.90;;;;;;5094809;28;20609;-80
2023/02/18 05:09:23;;;;;;;36.17;13.00;;;10.00;99.90;;;;;;5094034;28;20712;-80
2023/02/18 05:11:50;;;;;;;36.43;12.67;;;10.00;99.90;;;;;;5094542;28;20266;-80
2023/02/18 05:14:17;;;;;;;33.70;12.07;;;10.00;99.90;;;;;;5094669;28;20189;-79
2023/02/18 05:16:44;;;;;;;37.97;12.53;;;10.00;99.90;;;;;;5095986;28;20291;-82
2023/02/18 05:19:14;;;;;;;33.80;11.20;;;10.00;99.90;;;;;;5114697;28;20234;-80
2023/02/18 05:21:43;;;;;;;28.43;10.60;;;10.00;99.90;;;;;;5114343;28;20227;-82
2023/02/18 05:24:10;;;;;;;38.67;11.00;;;10.00;99.90;;;;;;5114258;28;20314;-80
2023/02/18 05:26:37;;;;;;;34.17;10.67;;;10.00;99.90;;;;;;5115170;28;20279;-81
2023/02/18 05:29:04;;;;;;;41.90;12.57;;;10.00;99.90;;;;;;5113425;28;20234;-81
2023/02/18 05:31:31;;;;;;;37.90;11.07;;;10.00;99.90;;;;;;5113454;28;20203;-82
2023/02/18 05:33:58;;;;;;;28.50;10.40;;;10.00;99.90;;;;;;5114518;28;20200;-81
2023/02/18 05:36:25;;;;;;;35.77;10.73;;;10.00;99.90;;;;;;5111125;28;20295;-83
2023/02/18 05:38:53;;;;;;;34.30;10.17;;;10.00;99.90;;;;;;5094417;28;20217;-83
2023/02/18 05:41:20;;;;;;;40.43;10.60;;;10.00;99.90;;;;;;5094514;28;20295;-81
2023/02/18 05:46:32;;;;;;;28.47;9.80;;;10.10;99.90;;;;;;5094655;28;20211;-83
2023/02/18 05:48:59;;;;;;;41.23;11.53;;;10.10;99.90;;;;;;5093936;28;20235;-81
2023/02/18 05:51:26;;;;;;;37.00;11.17;;;10.10;99.90;;;;;;5093826;28;20598;-84
2023/02/18 05:53:55;;;;;;;39.53;10.50;;;10.00;99.90;;;;;;5094545;28;20311;-84
2023/02/18 05:56:22;;;;;;;33.97;11.73;;;10.00;99.90;;;;;;5093828;28;20220;-81
2023/02/18 05:58:48;;;;;;;36.13;12.73;;;10.10;99.90;;;;;;5093463;28;20287;-81
2023/02/18 06:01:16;;;;;;;35.47;11.63;;;10.00;99.90;;;;;;5092877;28;20206;-81
2023/02/18 06:03:43;;;;;;;31.90;11.00;;;10.00;99.90;;;;;;5092707;28;20231;-81
2023/02/18 06:06:10;;;;;;;31.23;10.93;;;10.10;99.90;;;;;;5092353;28;20197;-82
2023/02/18 06:08:37;;;;;;;37.10;10.73;;;10.00;99.90;;;;;;5093513;28;20257;-80
2023/02/18 06:11:05;;;;;;;31.73;10.90;;;10.00;99.90;;;;;;5093261;28;20292;-80
2023/02/18 06:13:32;;;;;;;30.27;10.40;;;10.00;99.90;;;;;;5092472;28;20220;-82
2023/02/18 06:15:59;;;;;;;34.60;10.67;;;10.00;99.90;;;;;;5092887;28;20247;-83
2023/02/18 06:18:26;;;;;;;39.00;12.67;;;10.00;99.90;;;;;;5091981;28;20197;-78
2023/02/18 06:20:53;;;;;;;42.57;13.83;;;10.10;99.90;;;;;;5092556;28;20203;-84
2023/02/18 06:23:20;;;;;;;39.70;12.93;;;10.00;99.90;;;;;;5092781;28;20238;-78
2023/02/18 06:25:49;;;;;;;41.47;12.93;;;10.00;99.90;;;;;;5091595;28;20779;-79
2023/02/18 06:28:18;;;;;;;36.77;12.90;;;10.00;99.90;;;;;;5092748;28;20258;-81
2023/02/18 06:30:44;;;;;;;33.97;12.10;;;10.00;99.90;;;;;;5092485;28;20201;-81
2023/02/18 06:33:11;;;;;;;38.23;12.67;;;10.10;99.90;;;;;;5091786;28;20311;-78
2023/02/18 06:35:38;;;;;;;41.53;14.17;;;10.00;99.90;;;;;;5092311;28;20199;-81
2023/02/18 06:38:05;;;;;;;36.67;13.40;;;10.00;99.90;;;;;;5092674;28;20312;-80
2023/02/18 06:40:32;;;;;;;37.73;13.67;;;10.00;99.90;;;;;;5091585;28;20534;-84
2023/02/18 06:42:59;;;;;;;30.33;12.73;;;10.10;99.90;;;;;;5093245;28;20215;-82
2023/02/18 06:45:28;;;;;;;29.60;11.00;;;10.00;99.90;;;;;;5093425;28;20315;-82
2023/02/18 06:47:54;;;;;;;36.87;13.10;;;10.00;99.90;;;;;;5096235;28;20792;-80
2023/02/18 06:50:21;;;;;;;34.77;12.73;;;10.00;99.90;;;;;;5092831;28;20192;-81
2023/02/18 06:52:48;;;;;;;40.63;12.73;;;10.00;99.90;;;;;;5092509;28;20307;-79
2023/02/18 06:55:15;;;;;;;37.73;14.50;;;10.00;99.90;;;;;;5091793;28;20231;-81
2023/02/18 06:57:42;;;;;;;36.57;13.47;;;10.00;99.90;;;;;;5092239;28;20203;-81
2023/02/18 07:00:09;;;;;;;40.77;11.80;;;10.00;99.90;;;;;;5091983;28;20672;-83
2023/02/18 07:02:38;;;;;;;38.37;10.53;;;9.90;99.90;;;;;;5091476;28;20285;-83
2023/02/18 07:05:05;;;;;;;39.47;11.60;;;10.00;99.90;;;;;;5092146;28;20288;-80
2023/02/18 07:07:32;;;;;;;36.43;14.17;;;9.90;99.90;;;;;;5091937;28;20215;-80
2023/02/18 07:09:59;;;;;;;35.10;12.23;;;9.90;99.90;;;;;;5092435;28;20283;-80
2023/02/18 07:12:26;;;;;;;35.03;13.60;;;10.00;99.90;;;;;;5092303;28;20334;-78
2023/02/18 07:14:53;;;;;;;39.43;11.10;;;10.00;99.90;;;;;;5091708;28;20556;-75
2023/02/18 07:17:20;;;;;;;38.50;12.10;;;10.00;99.90;;;;;;5092745;28;20204;-78
2023/02/18 07:19:48;;;;;;;29.83;11.30;;;10.00;99.90;;;;;;5094973;28;20196;-81
2023/02/18 07:22:15;;;;;;;27.93;10.47;;;10.00;99.90;;;;;;5092066;28;20601;-78
2023/02/18 07:24:42;;;;;;;30.97;10.13;;;10.00;99.90;;;;;;5092205;28;20319;-82
2023/02/18 07:27:10;;;;;;;28.83;10.90;;;10.00;99.90;;;;;;5092205;28;20209;-81
2023/02/18 07:29:37;;;;;;;31.30;10.60;;;10.00;99.90;;;;;;5092923;28;20207;-84
2023/02/18 07:32:04;;;;;;;34.13;10.43;;;10.00;99.90;;;;;;5096027;28;20240;-78
2023/02/18 07:34:31;;;;;;;37.50;11.70;;;9.90;99.90;;;;;;5096812;28;20311;-84
2023/02/18 07:36:59;;;;;;;26.37;10.80;;;10.00;99.90;;;;;;5101961;28;20255;-85
2023/02/18 07:39:26;;;;;;;29.90;10.03;;;10.00;99.90;;;;;;5116801;28;20566;-84
2023/02/18 07:41:53;;;;;;;33.47;9.97;;;9.90;99.90;;;;;;5117118;28;20785;-86
2023/02/18 07:44:19;;;;;;;32.53;9.27;;;9.90;99.90;;;;;;5116511;28;20223;-85
2023/02/18 07:46:46;;;;;;;29.20;8.47;;;9.90;99.90;;;;;;5114451;28;20284;-84
2023/02/18 07:49:13;;;;;;;26.03;7.70;;;9.90;99.90;;;;;;5116297;28;20275;-85
2023/02/18 07:51:40;;;;;;;32.77;8.00;;;9.90;99.90;;;;;;5115797;28;20196;-86
2023/02/18 07:54:08;;;;;;;32.17;7.37;;;9.90;99.90;;;;;;5103524;28;20226;-86
2023/02/18 07:56:35;;;;;;;31.77;7.87;;;9.90;99.90;;;;;;5096025;28;20632;-84
2023/02/18 07:59:02;;;;;;;31.73;7.67;;;9.90;99.90;;;;;;5095703;28;20193;-85
2023/02/18 08:01:29;;;;;;;31.63;7.00;;;9.90;99.90;;;;;;5096543;28;20588;-83
2023/02/18 08:03:56;;;;;;;29.07;6.20;;;9.90;99.90;;;;;;5095737;28;20213;-80
2023/02/18 08:06:26;;;;;;;35.90;6.83;;;9.90;99.90;;;;;;5096008;28;20223;-78
2023/02/18 08:08:54;;;;;;;27.07;6.73;;;9.90;99.90;;;;;;5103052;28;20200;-85
2023/02/18 08:11:23;;;;;;;32.67;6.83;;;9.90;99.90;;;;;;5101346;28;20214;-84
2023/02/18 08:13:50;;;;;;;26.17;6.53;;;9.90;99.90;;;;;;5096210;28;20285;-83
2023/02/18 08:16:20;;;;;;;24.70;6.40;;;9.80;99.90;;;;;;5101433;28;20221;-84
2023/02/18 08:18:48;;;;;;;23.33;6.03;;;9.80;99.90;;;;;;5097200;28;20573;-83
2023/02/18 08:21:15;;;;;;;22.10;5.00;;;9.80;99.90;;;;;;5096632;28;20196;-82
2023/02/18 08:23:42;;;;;;;36.27;6.33;;;9.80;99.90;;;;;;5096601;28;20233;-85
2023/02/18 08:26:11;;;;;;;21.63;6.10;;;9.80;99.90;;;;;;5099060;28;20284;-84
2023/02/18 08:28:42;;;;;;;28.53;5.37;;;9.90;99.90;;;;;;5076105;28;20522;-88
2023/02/18 08:31:17;;;;;;;33.00;7.30;;;9.90;99.90;;;;;;5116836;28;20303;-89
2023/02/18 08:33:44;;;;;;;25.77;5.97;;;9.90;99.90;;;;;;5104536;28;20304;-83
2023/02/18 08:36:11;;;;;;;22.03;4.57;;;9.90;99.90;;;;;;5111200;28;20224;-81
2023/02/18 08:38:38;;;;;;;29.13;5.17;;;9.90;99.90;;;;;;5114964;28;20666;-79
2023/02/18 08:41:07;;;;;;;20.30;4.13;;;9.90;99.90;;;;;;5102792;28;20292;-79
2023/02/18 08:43:35;;;;;;;24.97;5.17;;;9.90;99.90;;;;;;5105219;28;20573;-79
2023/02/18 08:46:04;;;;;;;24.37;5.07;;;9.90;99.90;;;;;;5114084;28;20208;-79
2023/02/18 08:48:33;;;;;;;19.20;5.13;;;9.90;99.90;;;;;;5102163;28;20620;-83
2023/02/18 08:51:10;;;;;;;24.77;5.60;;;9.90;99.90;;;;;;5098609;28;20236;-85
2023/02/18 08:53:37;;;;;;;21.27;5.33;;;10.00;99.90;;;;;;5096631;28;20228;-84
2023/02/18 08:56:07;;;;;;;28.87;5.90;;;10.00;99.90;;;;;;5093194;22;20233;-85
2023/02/18 08:58:36;;;;;;;28.53;5.93;;;10.10;99.90;;;;;;5074796;28;20205;-86
2023/02/18 09:01:05;;;;;;;32.40;6.37;;;10.10;99.90;;;;;;5068629;28;20272;-85
2023/02/18 09:03:33;;;;;;;35.97;6.13;;;10.10;99.90;;;;;;5054263;28;20257;-78
2023/02/18 09:06:01;;;;;;;34.33;5.97;;;10.20;99.90;;;;;;5054970;28;20725;-83
2023/02/18 09:08:28;;;;;;;30.60;6.00;;;10.20;99.90;;;;;;5052507;28;20197;-82
2023/02/18 09:10:56;;;;;;;21.43;4.97;;;10.20;99.90;;;;;;5054297;28;20194;-79
2023/02/18 09:13:23;;;;;;;25.87;6.40;;;10.30;99.90;;;;;;5055935;28;20518;-83
2023/02/18 09:16:02;;;;;;;23.67;6.47;;;10.30;99.90;;;;;;5055968;28;20501;-82
2023/02/18 09:18:30;;;;;;;23.33;5.90;;;10.40;99.90;;;;;;5065551;28;20212;-88
2023/02/18 09:20:59;;;;;;;26.10;7.67;;;10.40;99.90;;;;;;5076260;28;20201;-81
2023/02/18 09:23:27;;;;;;;30.53;7.07;;;10.50;99.90;;;;;;5074733;22;20233;-86
2023/02/18 09:25:54;;;;;;;32.43;6.20;;;10.40;99.90;;;;;;5076031;28;20205;-84
2023/02/18 09:28:21;;;;;;;23.03;5.73;;;10.50;99.90;;;;;;5057529;28;20212;-84
2023/02/18 09:30:48;;;;;;;27.13;6.40;;;10.50;99.90;;;;;;5055827;28;20212;-86
2023/02/18 09:33:15;;;;;;;33.70;6.30;;;10.50;99.90;;;;;;5055231;28;20257;-85
2023/02/18 09:35:45;;;;;;;26.17;7.23;;;10.60;99.90;;;;;;5055635;28;20206;-78
2023/02/18 09:38:14;;;;;;;29.57;7.13;;;10.60;99.90;;;;;;5055188;28;20241;-79
2023/02/18 09:40:45;;;;;;;25.00;6.67;;;10.60;99.90;;;;;;5067804;28;20654;-77
2023/02/18 09:43:22;;;;;;;26.73;7.07;;;10.70;99.90;;;;;;5072323;28;20281;-78
2023/02/18 09:45:51;;;;;;;31.93;7.10;;;10.70;99.90;;;;;;5053974;28;20717;-78
2023/02/18 09:48:18;;;;;;;25.40;7.47;;;10.70;99.90;;;;;;5053622;28;20198;-84
2023/02/18 09:50:52;;;;;;;22.23;6.67;;;10.80;99.90;;;;;;5053228;28;20205;-80
2023/02/18 09:53:23;;;;;;;31.90;7.00;;;10.80;99.90;;;;;;5053989;28;20213;-83
2023/02/18 09:55:52;;;;;;;35.97;7.37;;;10.90;99.90;;;;;;5054710;28;20281;-84
2023/02/18 09:58:22;;;;;;;32.40;7.37;;;10.90;99.90;;;;;;5054567;28;20213;-83
2023/02/18 10:00:52;;;;;;;23.37;6.07;;;11.00;99.90;;;;;;5054379;28;20204;-85
2023/02/18 10:03:22;;;;;;;31.73;7.13;;;11.00;99.90;;;;;;5054180;28;20217;-86
2023/02/18 10:05:57;;;;;;;22.60;5.80;;;11.00;99.90;;;;;;5054860;28;20252;-83
2023/02/18 10:08:27;;;;;;;30.80;8.37;;;11.00;99.90;;;;;;5054679;28;20233;-82
2023/02/18 10:10:54;;;;;;;32.60;7.10;;;10.90;99.90;;;;;;5053919;28;20502;-80
2023/02/18 10:13:24;;;;;;;26.43;6.57;;;11.00;99.90;;;;;;5053923;28;20283;-84
2023/02/18 10:15:52;;;;;;;32.00;6.93;;;11.00;99.90;;;;;;5054037;28;20229;-79
2023/02/18 10:18:27;;;;;;;26.13;5.97;;;11.10;99.90;;;;;;5052173;28;20204;-78
2023/02/18 10:21:04;;;;;;;29.97;5.67;;;11.20;99.90;;;;;;5052974;28;20276;-80
2023/02/18 10:23:35;;;;;;;24.47;5.83;;;11.30;99.90;;;;;;5052879;28;20637;-82
2023/02/18 10:26:06;;;;;;;26.13;6.17;;;11.40;99.90;;;;;;5052330;28;20501;-82
2023/02/18 10:28:35;;;;;;;23.93;6.00;;;11.40;99.90;;;;;;5052665;28;20210;-81
2023/02/18 10:31:07;;;;;;;34.80;7.73;;;11.50;99.90;;;;;;5052617;28;20620;-80
2023/02/18 10:33:40;;;;;;;22.73;5.97;;;11.50;99.90;;;;;;5052789;28;20217;-78
2023/02/18 10:36:25;;;;;;;28.93;7.03;;;11.50;99.90;;;;;;5052807;28;20212;-80
2023/02/18 10:39:15;;;;;;;26.73;5.50;;;11.60;99.90;;;;;;5051985;28;20284;-80
2023/02/18 10:41:49;;;;;;;28.33;6.10;;;11.70;99.90;;;;;;5052419;28;20205;-79
2023/02/18 10:44:27;;;;;;;29.97;7.03;;;11.80;99.90;;;;;;5053065;28;20209;-81
2023/02/18 10:47:04;;;;;;;26.10;6.87;;;11.90;99.90;;;;;;5064700;28;20263;-83
2023/02/18 10:49:55;;;;;;;26.40;6.23;;;11.90;99.90;;;;;;5072515;28;20257;-82
2023/02/18 10:52:26;;;;;;;17.27;5.10;;;11.90;99.90;;;;;;5073303;28;20201;-82
2023/02/18 10:54:59;;;;;;;23.27;6.23;;;11.80;99.90;;;;;;5072352;28;20217;-82
2023/02/18 10:57:26;;;;;;;32.90;8.03;;;11.80;99.90;;;;;;5072790;28;20545;-82
2023/02/18 10:59:59;;;;;;;23.53;6.30;;;11.80;99.90;;;;;;5054594;28;20271;-80
2023/02/18 11:02:30;;;;;;;24.70;6.43;;;11.80;99.90;;;;;;5052739;28;20286;-81
2023/02/18 11:05:00;;;;;;;30.03;6.37;;;11.80;99.90;;;;;;5053957;28;20209;-83
2023/02/18 11:07:33;;;;;;;24.67;6.77;;;11.80;99.90;;;;;;5056648;28;20197;-80
2023/02/18 11:10:01;;;;;;;31.43;7.37;;;11.80;99.90;;;;;;5056582;28;20198;-81
2023/02/18 11:12:34;;;;;;;29.10;7.10;;;11.90;99.90;;;;;;5056375;28;20210;-76
2023/02/18 11:15:16;;;;;;;21.13;6.53;;;11.90;99.90;;;;;;5076173;28;20649;-82
2023/02/18 11:17:44;;;;;;;19.20;7.00;;;12.00;99.90;;;;;;5076745;28;20228;-80
2023/02/18 11:20:28;;;;;;;20.20;6.33;;;12.10;99.90;;;;;;5076150;28;20664;-79
2023/02/18 11:23:12;;;;;;;23.87;5.87;;;12.10;99.90;;;;;;5062056;28;20265;-81
2023/02/18 11:25:42;;;;;;;19.60;5.47;;;12.10;99.90;;;;;;5056547;28;20561;-84
2023/02/18 11:28:30;;;;;;;21.00;5.00;;;12.10;99.90;;;;;;5056785;28;20210;-78
2023/02/18 11:31:00;;;;;;;16.93;4.93;;;12.30;99.90;;;;;;5056170;28;20647;-85
2023/02/18 11:33:34;;;;;;;22.80;5.27;;;12.40;99.90;;;;;;5057689;28;20213;-85
2023/02/18 11:36:17;;;;;;;23.33;5.77;;;12.50;99.90;;;;;;5056923;28;20289;-79
2023/02/18 11:38:48;;;;;;;18.93;5.53;;;12.50;99.90;;;;;;5057452;28;20296;-76
2023/02/18 11:41:18;;;;;;;23.50;5.47;;;12.50;99.90;;;;;;5057313;28;20277;-83
2023/02/18 11:43:48;;;;;;;25.53;5.67;;;12.50;99.90;;;;;;5056335;28;20208;-79
2023/02/18 11:46:17;;;;;;;21.50;5.70;;;12.50;99.90;;;;;;5055536;28;20583;-78
2023/02/18 11:48:45;;;;;;;16.47;5.17;;;12.50;99.90;;;;;;5055250;28;20200;-80
2023/02/18 11:51:17;;;;;;;17.97;6.10;;;12.50;99.90;;;;;;5055312;28;20201;-75
2023/02/18 11:53:58;;;;;;;20.57;5.87;;;12.50;99.90;;;;;;5062797;28;20217;-83
2023/02/18 11:56:27;;;;;;;23.37;5.87;;;12.60;99.90;;;;;;5069100;28;20228;-79
2023/02/18 11:58:55;;;;;;;22.13;6.63;;;12.60;99.90;;;;;;5055814;28;20226;-84
2023/02/18 12:01:46;;;;;;;25.20;5.07;;;12.60;99.90;;;;;;5056981;28;20233;-77
2023/02/18 12:04:15;;;;;;;19.13;5.60;;;12.70;99.90;;;;;;5056009;28;20233;-83
2023/02/18 12:06:50;;;;;;;21.03;6.10;;;12.80;99.90;;;;;;5075169;28;20516;-78
2023/02/18 12:09:28;;;;;;;18.53;5.10;;;12.80;99.90;;;;;;5075816;28;20405;-77
2023/02/18 12:11:58;;;;;;;18.53;4.90;;;12.90;99.90;;;;;;5075644;28;20193;-78
2023/02/18 12:14:25;;;;;;;17.73;4.93;;;12.90;99.90;;;;;;5074951;28;20232;-83
2023/02/18 12:17:14;;;;;;;20.90;4.60;;;12.80;99.90;;;;;;5067973;28;20262;-81
2023/02/18 12:20:08;;;;;;;19.50;4.47;;;12.80;99.90;;;;;;5070320;28;20245;-87
2023/02/18 12:22:42;;;;;;;30.30;6.27;;;12.80;99.90;;;;;;5082904;28;20213;-86
2023/02/18 12:25:34;;;;;;;16.27;5.43;;;12.80;99.90;;;;;;5054264;28;20201;-78
2023/02/18 12:28:12;;;;;;;23.83;4.77;;;12.80;99.90;;;;;;5042308;28;20191;-86
2023/02/18 12:31:04;;;;;;;26.37;6.03;;;12.90;99.90;;;;;;5056378;28;20300;-87
2023/02/18 12:33:42;;;;;;;19.13;5.53;;;12.80;99.90;;;;;;5009020;28;20291;-87
2023/02/18 12:36:16;;;;;;;24.83;5.13;;;13.00;99.90;;;;;;5036696;28;20297;-92
2023/02/18 12:39:16;;;;;;;21.77;5.17;;;13.10;99.90;;;;;;5048920;28;20206;-87
2023/02/18 12:42:19;;;;;;;19.07;5.10;;;13.10;99.90;;;;;;5045866;28;20202;-89
2023/02/18 12:44:59;;;;;;;21.80;6.17;;;13.20;99.90;;;;;;4994883;28;20286;-85
2023/02/18 12:47:38;;;;;;;19.70;5.10;;;13.20;99.90;;;;;;5044581;28;20277;-83
2023/02/18 12:50:28;;;;;;;25.67;6.17;;;13.20;99.90;;;;;;5036385;28;20287;-81
2023/02/18 12:53:15;;;;;;;23.70;5.30;;;13.00;99.90;;;;;;5036109;28;20617;-80
2023/02/18 12:55:57;;;;;;;18.73;5.83;;;12.90;99.90;;;;;;5038671;28;20213;-87